Time;durP1;ratioP1;P1;durP2;ratioP2;P2;SDS_P1;SDS_P2;PMS_P1;PMS_P2;Temp;Humidity;BMP_temperature;BMP_pressure;BME280_temperature;BME280_humidity;BME280_pressure;Samples;Min_cycle;Max_cycle;Signal;HPM_P1;HPM_P2
2023/02/06 00:00:18;;;;;;;6.77;5.67;;;;;;;4.08;68.26;97398.88;6071459;23;20184;-82
2023/02/06 00:02:45;;;;;;;7.17;5.90;;;;;;;4.10;68.08;97394.50;6068801;23;20212;-82
2023/02/06 00:05:13;;;;;;;6.60;5.83;;;;;;;4.01;68.03;97387.41;6071147;23;20188;-82
2023/02/06 00:07:39;;;;;;;7.07;5.97;;;;;;;3.84;68.34;97393.53;6070921;23;20209;-83
2023/02/06 00:10:06;;;;;;;6.43;5.60;;;;;;;3.86;68.38;97394.22;6070299;23;20188;-82
2023/02/06 00:12:33;;;;;;;6.83;5.97;;;;;;;3.68;68.30;97393.56;6070461;23;20231;-82
2023/02/06 00:14:59;;;;;;;6.60;5.90;;;;;;;3.51;68.74;97387.81;6070997;23;20648;-82
2023/02/06 00:17:26;;;;;;;6.50;5.73;;;;;;;3.54;68.95;97396.09;6070045;23;20216;-82
2023/02/06 00:19:52;;;;;;;5.80;5.23;;;;;;;3.46;67.99;97385.56;6069934;23;20199;-82
2023/02/06 00:22:20;;;;;;;6.83;6.10;;;;;;;3.34;68.23;97399.78;6068455;23;20212;-82
2023/02/06 00:24:46;;;;;;;6.07;5.30;;;;;;;3.41;69.12;97397.72;6054565;23;20596;-82
2023/02/06 00:27:13;;;;;;;6.53;5.67;;;;;;;3.55;69.44;97410.47;6069240;23;20209;-82
2023/02/06 00:29:39;;;;;;;6.70;6.00;;;;;;;3.69;69.38;97405.41;6069126;23;20252;-82
2023/02/06 00:32:05;;;;;;;7.07;6.17;;;;;;;3.79;69.20;97408.25;6068068;23;20220;-82
2023/02/06 00:34:32;;;;;;;7.27;6.07;;;;;;;3.74;69.28;97407.69;6070328;23;20508;-82
2023/02/06 00:36:58;;;;;;;6.80;6.10;;;;;;;3.50;70.25;97407.38;6070217;23;20211;-82
2023/02/06 00:39:26;;;;;;;7.63;6.30;;;;;;;3.14;70.26;97400.09;6040797;23;20208;-82
2023/02/06 00:41:54;;;;;;;6.67;5.90;;;;;;;2.93;71.28;97407.19;6069310;23;20260;-82
2023/02/06 00:44:20;;;;;;;7.67;5.97;;;;;;;2.66;71.56;97413.81;6070291;23;20212;-82
2023/02/06 00:46:47;;;;;;;7.10;6.23;;;;;;;2.70;71.43;97408.44;6070023;23;20209;-82
2023/02/06 00:49:14;;;;;;;6.63;6.03;;;;;;;2.70;72.00;97420.34;6069851;23;20703;-82
2023/02/06 00:51:41;;;;;;;8.30;6.90;;;;;;;2.69;71.64;97416.19;6069860;23;20708;-82
2023/02/06 00:54:08;;;;;;;7.20;6.20;;;;;;;2.81;71.57;97405.34;6070462;23;20783;-82
2023/02/06 00:56:36;;;;;;;7.83;6.60;;;;;;;2.99;71.36;97411.13;6068641;23;20544;-82
2023/02/06 00:59:02;;;;;;;6.77;6.13;;;;;;;3.10;70.84;97404.53;6008650;23;20209;-82
2023/02/06 01:01:29;;;;;;;6.80;6.10;;;;;;;3.26;70.68;97408.78;6068038;23;20177;-82
2023/02/06 01:03:55;;;;;;;6.90;6.20;;;;;;;3.40;70.01;97416.47;6039622;23;20273;-82
2023/02/06 01:06:22;;;;;;;7.63;6.40;;;;;;;3.48;69.68;97412.53;6064447;23;20184;-82
2023/02/06 01:08:48;;;;;;;7.03;6.20;;;;;;;3.56;69.97;97406.22;6069229;23;20673;-82
2023/02/06 01:11:17;;;;;;;7.13;6.30;;;;;;;3.66;69.76;97420.84;6069033;23;20196;-82
2023/02/06 01:13:45;;;;;;;7.20;6.37;;;;;;;3.68;69.44;97420.78;6039185;23;20742;-82
2023/02/06 01:16:14;;;;;;;7.27;6.57;;;;;;;3.71;69.01;97425.69;6066537;23;20181;-82
2023/02/06 01:18:41;;;;;;;6.90;6.20;;;;;;;3.71;68.83;97428.25;6069619;23;20228;-82
2023/02/06 01:21:09;;;;;;;8.03;6.30;;;;;;;3.70;69.08;97421.50;6071332;23;20176;-82
2023/02/06 01:23:35;;;;;;;6.70;6.10;;;;;;;3.69;68.91;97428.31;6070184;23;20224;-82
2023/02/06 01:26:05;;;;;;;6.77;6.10;;;;;;;3.54;68.28;97428.38;6010685;23;20227;-82
2023/02/06 01:28:31;;;;;;;7.13;6.40;;;;;;;3.57;69.10;97423.13;6065351;23;20209;-82
2023/02/06 01:30:59;;;;;;;7.10;6.43;;;;;;;3.62;68.96;97416.88;6068614;23;20189;-82
2023/02/06 01:33:25;;;;;;;7.17;6.47;;;;;;;3.69;68.57;97413.03;6068479;23;20223;-82
2023/02/06 01:35:56;;;;;;;6.87;6.20;;;;;;;3.58;68.51;97414.59;6070495;23;20184;-82
2023/02/06 01:38:22;;;;;;;7.10;6.40;;;;;;;3.59;68.40;97419.59;6068858;23;20212;-82
2023/02/06 01:40:48;;;;;;;7.47;6.77;;;;;;;3.50;68.42;97416.75;6037150;23;20525;-82
2023/02/06 01:43:18;;;;;;;7.40;6.70;;;;;;;3.49;68.42;97413.38;6065874;23;20208;-82
2023/02/06 01:45:46;;;;;;;8.57;6.50;;;;;;;3.38;67.31;97415.72;6070170;23;20667;-82
2023/02/06 01:48:19;;;;;;;7.33;6.53;;;;;;;3.30;67.35;97412.78;6068311;23;20664;-82
2023/02/06 01:50:49;;;;;;;6.73;6.10;;;;;;;3.36;67.77;97415.81;6069351;23;20519;-82
2023/02/06 01:53:18;;;;;;;7.13;6.40;;;;;;;3.46;67.44;97419.44;6068199;23;20276;-82
2023/02/06 01:55:46;;;;;;;7.13;5.97;;;;;;;3.47;67.35;97415.19;6069710;23;20264;-82
2023/02/06 01:58:17;;;;;;;6.10;5.57;;;;;;;3.56;67.57;97413.84;6068977;23;20204;-82
2023/02/06 02:00:43;;;;;;;6.60;5.97;;;;;;;3.63;67.43;97412.59;6069847;23;20172;-82
2023/02/06 02:03:10;;;;;;;7.33;6.63;;;;;;;3.58;66.52;97410.31;6069887;23;20220;-82
2023/02/06 02:05:38;;;;;;;7.77;6.63;;;;;;;3.44;67.66;97407.75;6069683;23;20181;-82
2023/02/06 02:08:13;;;;;;;8.53;6.60;;;;;;;3.46;68.01;97404.19;6068619;23;20208;-82
2023/02/06 02:10:40;;;;;;;7.53;6.73;;;;;;;3.55;68.50;97397.75;6068715;23;20164;-82
2023/02/06 02:13:06;;;;;;;7.83;6.90;;;;;;;3.61;68.04;97401.69;6069061;23;20220;-82
2023/02/06 02:15:40;;;;;;;7.27;6.57;;;;;;;3.62;68.22;97396.50;6068990;23;20245;-82
2023/02/06 02:18:29;;;;;;;7.30;6.60;;;;;;;3.67;68.04;97401.31;6070917;23;20204;-82
2023/02/06 02:21:18;;;;;;;7.27;6.57;;;;;;;3.74;68.37;97397.50;6046563;23;20173;-82
2023/02/06 02:23:52;;;;;;;7.53;6.67;;;;;;;3.71;68.08;97393.41;6069672;23;20200;-82
2023/02/06 02:26:56;;;;;;;7.73;6.93;;;;;;;3.79;68.02;97401.44;6070778;23;20165;-82
2023/02/06 02:29:42;;;;;;;7.77;6.97;;;;;;;3.80;67.38;97412.44;6070824;23;20207;-82
2023/02/06 02:32:36;;;;;;;7.23;6.53;;;;;;;3.81;67.39;97414.91;6068834;23;20216;-82
2023/02/06 02:35:12;;;;;;;7.20;6.53;;;;;;;3.81;67.52;97414.91;6072123;23;20165;-82
2023/02/06 02:37:50;;;;;;;7.47;6.43;;;;;;;3.82;66.96;97413.16;6070968;23;20260;-82
2023/02/06 02:40:24;;;;;;;7.83;7.03;;;;;;;3.83;66.60;97388.50;6071106;23;20165;-82
2023/02/06 02:43:01;;;;;;;7.73;6.53;;;;;;;3.85;66.47;97394.34;6070365;23;20215;-82
2023/02/06 02:45:32;;;;;;;7.93;7.13;;;;;;;3.84;66.54;97387.59;6072202;23;20497;-82
2023/02/06 02:48:06;;;;;;;7.63;6.87;;;;;;;3.83;65.48;97381.69;6070736;23;20703;-82
2023/02/06 02:50:36;;;;;;;7.20;6.50;;;;;;;3.80;65.60;97389.50;6071778;23;20165;-82
2023/02/06 02:53:04;;;;;;;7.67;6.87;;;;;;;3.75;65.78;97379.56;6070662;23;20220;-82
2023/02/06 02:55:31;;;;;;;7.73;7.03;;;;;;;3.71;65.44;97382.38;6071055;23;20185;-82
2023/02/06 02:58:02;;;;;;;8.87;7.43;;;;;;;3.72;65.91;97379.75;6070704;23;20212;-82
2023/02/06 03:00:32;;;;;;;8.37;7.03;;;;;;;3.76;65.85;97382.94;6070691;23;20165;-82
2023/02/06 03:02:59;;;;;;;8.03;7.00;;;;;;;3.73;65.87;97386.50;6070280;23;20560;-82
2023/02/06 03:05:27;;;;;;;7.57;6.73;;;;;;;3.72;65.79;97395.03;6070453;23;20181;-82
2023/02/06 03:08:10;;;;;;;8.33;7.53;;;;;;;3.71;66.15;97397.66;6069793;23;20209;-82
2023/02/06 03:10:48;;;;;;;8.10;7.30;;;;;;;3.68;66.44;97395.28;6070478;23;20165;-82
2023/02/06 03:13:20;;;;;;;7.07;6.43;;;;;;;3.71;66.60;97400.22;6070061;23;20880;-82
2023/02/06 03:15:55;;;;;;;8.10;7.30;;;;;;;3.68;65.93;97393.56;6071959;23;20162;-82
2023/02/06 03:18:28;;;;;;;7.87;7.07;;;;;;;3.65;65.37;97401.41;6070708;23;20557;-82
2023/02/06 03:21:02;;;;;;;8.07;6.90;;;;;;;3.58;65.71;97399.31;6056287;23;20231;-82
2023/02/06 03:23:33;;;;;;;7.70;6.90;;;;;;;3.56;65.41;97399.38;6070728;23;20219;-82
2023/02/06 03:26:05;;;;;;;7.63;6.83;;;;;;;3.53;65.25;97402.09;6071620;23;20271;-82
2023/02/06 03:28:35;;;;;;;7.63;6.83;;;;;;;3.50;65.48;97404.81;6070170;23;20208;-82
2023/02/06 03:31:05;;;;;;;7.63;6.93;;;;;;;3.48;65.22;97410.00;6068736;23;20185;-82
2023/02/06 03:33:36;;;;;;;7.20;6.53;;;;;;;3.48;65.21;97407.47;6069573;23;20227;-82
2023/02/06 03:36:04;;;;;;;8.20;7.40;;;;;;;3.45;65.00;97412.75;6071306;23;20683;-82
2023/02/06 03:38:32;;;;;;;7.53;6.70;;;;;;;3.44;65.47;97413.66;6070238;23;20712;-82
2023/02/06 03:41:00;;;;;;;8.17;7.37;;;;;;;3.48;65.94;97409.19;6070389;23;20192;-82
2023/02/06 03:43:29;;;;;;;8.20;7.30;;;;;;;3.46;65.88;97416.13;6069862;23;20213;-82
2023/02/06 03:45:59;;;;;;;8.37;7.57;;;;;;;3.44;66.18;97418.75;6069506;23;20192;-82
2023/02/06 03:48:31;;;;;;;8.43;7.60;;;;;;;3.45;66.55;97429.75;6070537;23;20268;-82
2023/02/06 03:51:01;;;;;;;8.33;7.53;;;;;;;3.40;66.51;97426.66;6070925;23;20169;-82
2023/02/06 03:53:28;;;;;;;7.83;7.13;;;;;;;3.40;66.54;97432.56;6070186;23;20216;-82
2023/02/06 03:56:01;;;;;;;7.67;6.77;;;;;;;3.42;66.68;97430.75;6071723;23;20177;-82
2023/02/06 03:58:28;;;;;;;7.97;7.23;;;;;;;3.38;66.08;97442.00;6070301;23;20237;-82
2023/02/06 04:00:54;;;;;;;8.70;7.33;;;;;;;3.27;66.35;97435.88;6070851;23;20180;-82
2023/02/06 04:03:21;;;;;;;8.33;7.47;;;;;;;3.23;66.30;97435.22;6069230;23;20706;-82
2023/02/06 04:05:48;;;;;;;7.43;6.50;;;;;;;3.23;66.17;97437.78;6070215;23;20192;-82
2023/02/06 04:08:14;;;;;;;8.37;6.40;;;;;;;3.24;65.78;97434.31;6069825;23;20213;-82
2023/02/06 04:10:41;;;;;;;7.90;7.10;;;;;;;3.27;65.59;97439.22;6069793;23;20731;-82
2023/02/06 04:13:08;;;;;;;8.67;7.10;;;;;;;3.26;66.04;97435.06;6068766;23;20215;-82
2023/02/06 04:15:35;;;;;;;7.67;6.90;;;;;;;3.19;66.07;97443.13;6069780;23;20668;-82
2023/02/06 04:18:01;;;;;;;7.93;7.10;;;;;;;3.17;65.97;97439.84;6070071;23;20212;-82
2023/02/06 04:20:29;;;;;;;7.80;6.70;;;;;;;3.12;65.68;97427.34;6069497;23;20177;-82
2023/02/06 04:22:55;;;;;;;7.80;7.10;;;;;;;3.13;65.75;97423.91;6068408;23;20224;-82
2023/02/06 04:25:22;;;;;;;8.30;7.50;;;;;;;2.98;65.67;97420.50;6069089;23;20188;-82
2023/02/06 04:27:48;;;;;;;7.67;6.87;;;;;;;2.90;66.32;97415.00;6068823;23;20706;-82
2023/02/06 04:30:17;;;;;;;7.93;6.80;;;;;;;2.93;66.04;97414.00;6068413;23;20200;-82
2023/02/06 04:32:43;;;;;;;8.43;6.87;;;;;;;2.96;66.07;97412.13;6069270;23;20214;-83
2023/02/06 04:35:10;;;;;;;7.33;6.57;;;;;;;2.73;65.85;97403.19;6069755;23;20181;-82
2023/02/06 04:37:36;;;;;;;8.07;7.03;;;;;;;2.63;66.04;97408.88;6068478;23;20227;-82
2023/02/06 04:40:03;;;;;;;7.67;6.73;;;;;;;2.44;66.45;97401.41;6069484;23;20713;-82
2023/02/06 04:42:29;;;;;;;7.53;6.83;;;;;;;2.49;66.93;97391.00;6067463;23;20672;-82
2023/02/06 04:44:56;;;;;;;8.53;6.93;;;;;;;2.57;66.64;97388.84;6069166;23;20181;-82
2023/02/06 04:47:23;;;;;;;7.10;6.40;;;;;;;2.54;66.32;97383.94;6068351;23;20231;-82
2023/02/06 04:49:50;;;;;;;8.40;7.30;;;;;;;2.41;66.30;97384.59;6067952;23;20536;-82
2023/02/06 04:52:16;;;;;;;7.93;7.13;;;;;;;2.45;66.84;97385.25;6067786;23;20559;-83
2023/02/06 04:54:43;;;;;;;8.13;6.90;;;;;;;2.42;66.95;97390.50;6068944;23;20197;-82
2023/02/06 04:57:09;;;;;;;12.43;7.30;;;;;;;2.52;66.88;97396.72;6068725;23;20216;-82
2023/02/06 04:59:35;;;;;;;8.50;7.37;;;;;;;2.58;66.54;97403.22;6069265;23;20200;-82
2023/02/06 05:02:02;;;;;;;7.57;6.80;;;;;;;2.64;66.93;97410.53;6068274;23;20208;-82
2023/02/06 05:04:30;;;;;;;8.70;7.20;;;;;;;2.71;66.92;97412.63;6070637;23;20672;-81
2023/02/06 05:06:56;;;;;;;7.80;7.00;;;;;;;2.74;67.09;97406.56;6070518;23;20810;-82
2023/02/06 05:09:23;;;;;;;7.67;6.97;;;;;;;2.74;66.96;97412.47;6070540;23;20222;-82
2023/02/06 05:11:49;;;;;;;7.87;7.07;;;;;;;2.68;67.56;97414.53;6068972;23;20241;-82
2023/02/06 05:14:15;;;;;;;9.37;7.90;;;;;;;2.62;67.49;97397.88;6069519;23;20813;-82
2023/02/06 05:16:42;;;;;;;8.23;7.23;;;;;;;2.63;67.71;97408.88;6068568;23;20208;-82
2023/02/06 05:19:08;;;;;;;9.77;7.30;;;;;;;2.71;67.66;97402.47;6069062;23;20184;-82
2023/02/06 05:21:36;;;;;;;7.90;7.10;;;;;;;2.70;67.89;97407.63;6066638;23;20205;-82
2023/02/06 05:24:03;;;;;;;8.23;7.40;;;;;;;2.49;67.86;97396.91;6052730;23;20217;-82
2023/02/06 05:26:29;;;;;;;7.93;7.03;;;;;;;2.33;68.67;97396.88;6066557;23;20185;-82
2023/02/06 05:28:55;;;;;;;8.10;7.30;;;;;;;2.28;68.92;97398.88;6067553;23;20225;-82
2023/02/06 05:31:22;;;;;;;9.17;7.57;;;;;;;2.17;69.20;97390.16;6066519;23;20161;-83
2023/02/06 05:33:50;;;;;;;8.53;7.63;;;;;;;2.11;69.18;97386.25;6068076;23;20204;-82
2023/02/06 05:36:18;;;;;;;8.43;7.60;;;;;;;2.18;69.60;97379.91;6065607;23;20176;-83
2023/02/06 05:38:45;;;;;;;8.27;7.40;;;;;;;2.27;69.43;97387.06;6064534;23;20184;-82
2023/02/06 05:41:12;;;;;;;9.33;7.13;;;;;;;2.36;68.58;97368.78;6067799;23;20177;-83
2023/02/06 05:43:38;;;;;;;8.03;7.23;;;;;;;2.43;68.33;97379.44;6065917;23;20506;-83
2023/02/06 05:46:04;;;;;;;9.13;7.63;;;;;;;2.37;68.02;97372.94;6056414;23;20189;-83
2023/02/06 05:48:33;;;;;;;8.77;7.73;;;;;;;2.40;67.76;97372.78;6062922;23;20220;-83
2023/02/06 05:51:00;;;;;;;9.90;7.80;;;;;;;2.42;68.17;97377.81;6067679;23;20222;-83
2023/02/06 05:53:27;;;;;;;8.57;7.37;;;;;;;2.45;67.70;97371.75;6067729;23;20221;-83
2023/02/06 05:55:55;;;;;;;9.23;7.80;;;;;;;2.48;67.45;97382.56;6068854;23;20176;-83
2023/02/06 05:58:21;;;;;;;9.67;8.00;;;;;;;2.48;67.36;97377.47;6068387;23;20217;-85
2023/02/06 06:00:48;;;;;;;8.37;7.30;;;;;;;2.49;67.54;97376.56;6068695;23;20173;-85
2023/02/06 06:03:14;;;;;;;8.67;7.37;;;;;;;2.37;68.13;97367.88;6068065;23;20220;-85
2023/02/06 06:05:41;;;;;;;8.67;7.77;;;;;;;2.36;68.05;97373.84;6069506;23;20184;-85
2023/02/06 06:08:10;;;;;;;8.30;7.30;;;;;;;2.39;68.08;97368.63;6068728;23;20212;-86
2023/02/06 06:10:36;;;;;;;8.57;7.57;;;;;;;2.48;68.41;97372.41;6068574;23;20197;-85
2023/02/06 06:13:04;;;;;;;8.53;7.67;;;;;;;2.29;68.59;97369.19;6068241;23;20209;-86
2023/02/06 06:15:30;;;;;;;8.47;7.53;;;;;;;2.19;68.76;97363.78;6053432;23;20212;-85
2023/02/06 06:17:57;;;;;;;14.13;8.03;;;;;;;2.21;68.87;97379.75;6068716;23;20545;-85
2023/02/06 06:20:23;;;;;;;9.73;8.37;;;;;;;2.04;69.73;97380.66;6068855;23;20184;-86
2023/02/06 06:22:50;;;;;;;9.43;8.40;;;;;;;2.03;69.32;97376.47;6070038;23;20212;-86
2023/02/06 06:25:16;;;;;;;11.27;8.30;;;;;;;1.90;70.12;97372.94;6069369;23;20181;-85
2023/02/06 06:27:43;;;;;;;9.90;8.47;;;;;;;1.93;69.99;97382.91;6068098;23;20224;-85
2023/02/06 06:30:12;;;;;;;9.13;8.23;;;;;;;1.86;70.50;97385.84;6067653;23;20603;-85
2023/02/06 06:32:38;;;;;;;9.23;8.23;;;;;;;1.73;71.68;97396.63;6067619;23;20554;-85
2023/02/06 06:35:06;;;;;;;9.80;8.73;;;;;;;1.54;72.13;97390.81;6068200;23;20181;-85
2023/02/06 06:37:32;;;;;;;20.93;16.10;;;;;;;1.32;73.57;97395.34;6067434;23;20288;-86
2023/02/06 06:39:59;;;;;;;10.33;9.30;;;;;;;1.08;74.18;97389.75;6068761;23;20173;-85
2023/02/06 06:42:25;;;;;;;10.83;9.27;;;;;;;1.21;73.95;97382.34;6067268;23;20223;-85
2023/02/06 06:44:51;;;;;;;11.87;9.30;;;;;;;1.35;73.86;97382.47;6068741;23;20177;-85
2023/02/06 06:47:19;;;;;;;10.20;9.00;;;;;;;1.50;73.07;97386.00;6068629;23;20205;-85
2023/02/06 06:49:45;;;;;;;10.57;9.23;;;;;;;1.65;72.15;97391.13;6068852;23;20208;-85
2023/02/06 06:52:12;;;;;;;10.37;9.27;;;;;;;1.75;72.04;97399.09;6068384;23;20220;-85
2023/02/06 06:54:38;;;;;;;12.30;9.70;;;;;;;1.72;72.13;97389.94;6070036;23;20195;-83
2023/02/06 06:57:05;;;;;;;10.83;9.37;;;;;;;1.75;72.24;97394.00;6068476;23;20688;-85
2023/02/06 06:59:31;;;;;;;9.80;8.80;;;;;;;1.85;72.08;97389.28;6037332;23;20215;-85
2023/02/06 07:01:57;;;;;;;9.73;8.73;;;;;;;1.74;71.88;97384.75;6061608;23;20347;-85
2023/02/06 07:04:28;;;;;;;9.17;8.27;;;;;;;1.71;71.41;97390.81;6067562;23;20252;-85
2023/02/06 07:06:54;;;;;;;11.00;8.90;;;;;;;1.65;72.37;97395.38;6068670;23;20292;-85
2023/02/06 07:09:21;;;;;;;11.10;8.80;;;;;;;1.82;71.63;97399.59;6039163;23;20204;-85
2023/02/06 07:11:47;;;;;;;10.77;9.10;;;;;;;2.07;70.86;97397.44;6066613;23;20216;-85
2023/02/06 07:14:14;;;;;;;10.63;8.83;;;;;;;2.33;70.13;97391.81;6067695;23;20203;-85
2023/02/06 07:16:40;;;;;;;12.00;9.00;;;;;;;2.63;69.38;97393.63;6067403;23;20204;-85
2023/02/06 07:19:08;;;;;;;12.47;9.30;;;;;;;2.84;68.66;97395.00;6051514;23;20215;-85
2023/02/06 07:21:35;;;;;;;116.03;76.00;;;;;;;2.87;67.79;97387.22;6066954;23;20204;-86
2023/02/06 07:24:02;;;;;;;11.37;9.77;;;;;;;2.99;66.67;97388.25;6068981;23;20696;-86
2023/02/06 07:26:29;;;;;;;12.67;10.20;;;;;;;3.19;66.10;97395.56;6067472;23;20177;-85
2023/02/06 07:28:55;;;;;;;10.13;9.00;;;;;;;3.47;65.78;97389.72;6067472;23;20659;-85
2023/02/06 07:31:22;;;;;;;11.30;8.97;;;;;;;3.77;64.51;97390.50;6066867;23;20563;-83
2023/02/06 07:33:49;;;;;;;9.73;8.67;;;;;;;4.15;63.80;97395.88;6067920;23;20208;-83
2023/02/06 07:36:17;;;;;;;10.43;8.93;;;;;;;4.69;62.55;97390.03;6068037;23;20185;-83
2023/02/06 07:38:45;;;;;;;10.43;7.87;;;;;;;5.12;60.67;97383.03;6011073;23;20269;-85
2023/02/06 07:41:11;;;;;;;9.13;8.23;;;;;;;5.38;58.93;97394.13;6059545;23;20184;-85
2023/02/06 07:43:38;;;;;;;9.80;8.70;;;;;;;5.47;58.70;97396.06;6070067;23;20287;-85
2023/02/06 07:46:05;;;;;;;9.13;8.23;;;;;;;5.60;59.13;97391.78;6069996;23;20254;-85
2023/02/06 07:48:32;;;;;;;10.97;8.47;;;;;;;5.78;58.42;97385.44;6067567;23;20213;-85
2023/02/06 07:51:04;;;;;;;11.43;8.57;;;;;;;5.85;57.92;97391.78;6068974;23;20197;-85
2023/02/06 07:53:31;;;;;;;10.00;9.00;;;;;;;5.81;57.66;97385.25;6067539;23;20237;-85
2023/02/06 07:55:58;;;;;;;10.17;9.10;;;;;;;5.77;57.14;97391.47;6067629;23;20192;-85
2023/02/06 07:58:25;;;;;;;10.47;8.67;;;;;;;5.82;57.67;97396.28;6067411;23;20216;-85
2023/02/06 08:00:53;;;;;;;9.20;8.30;;;;;;;5.88;56.73;97399.28;6068786;23;20177;-86
2023/02/06 08:03:19;;;;;;;10.20;8.90;;;;;;;5.97;56.40;97387.63;6068279;23;20235;-85
2023/02/06 08:05:46;;;;;;;10.73;8.73;;;;;;;6.06;55.75;97397.22;6070603;23;20185;-85
2023/02/06 08:08:13;;;;;;;9.77;8.87;;;;;;;6.08;55.53;97404.81;6069524;23;20216;-85
2023/02/06 08:10:39;;;;;;;9.47;8.57;;;;;;;6.09;55.15;97407.25;6011589;23;20213;-85
2023/02/06 08:13:07;;;;;;;9.43;8.33;;;;;;;6.17;54.86;97410.09;6059809;23;20242;-85
2023/02/06 08:15:34;;;;;;;9.10;8.20;;;;;;;6.26;54.57;97411.22;6069119;23;20200;-85
2023/02/06 08:18:00;;;;;;;21.73;18.93;;;;;;;6.41;54.39;97417.03;6067804;23;20213;-85
2023/02/06 08:20:27;;;;;;;37.57;28.33;;;;;;;6.66;54.25;97411.84;6068858;23;20656;-86
2023/02/06 08:22:54;;;;;;;19.67;16.07;;;;;;;6.81;53.08;97410.75;6067734;23;20228;-85
2023/02/06 08:25:20;;;;;;;10.17;9.03;;;;;;;7.05;52.79;97415.91;6069776;23;20181;-85
2023/02/06 08:27:47;;;;;;;8.83;8.03;;;;;;;7.16;51.73;97418.50;6068796;23;20212;-85
2023/02/06 08:30:15;;;;;;;9.20;8.40;;;;;;;7.23;51.46;97408.63;6069488;23;20284;-85
2023/02/06 08:32:41;;;;;;;8.60;7.73;;;;;;;7.38;51.28;97415.22;6068579;23;20224;-85
2023/02/06 08:35:11;;;;;;;8.67;7.80;;;;;;;7.42;50.66;97414.06;6070928;23;20188;-85
2023/02/06 08:37:37;;;;;;;8.30;7.50;;;;;;;7.35;49.81;97417.16;6069374;23;20205;-85
2023/02/06 08:40:04;;;;;;;8.17;7.37;;;;;;;7.16;50.22;97412.56;6069393;23;20208;-85
2023/02/06 08:42:31;;;;;;;7.87;7.10;;;;;;;7.15;50.01;97409.19;6070548;23;20217;-85
2023/02/06 08:44:57;;;;;;;8.17;7.37;;;;;;;7.23;50.29;97409.47;6070659;23;20180;-85
2023/02/06 08:47:25;;;;;;;7.40;6.70;;;;;;;7.37;49.26;97423.81;6069178;23;20205;-85
2023/02/06 08:49:51;;;;;;;7.33;6.67;;;;;;;7.54;49.89;97418.28;6069716;23;20209;-86
2023/02/06 08:52:18;;;;;;;7.67;6.83;;;;;;;7.53;49.11;97415.81;6069079;23;20533;-86
2023/02/06 08:54:44;;;;;;;6.80;6.20;;;;;;;7.51;48.96;97415.94;6070439;23;20259;-86
2023/02/06 08:57:12;;;;;;;7.30;6.60;;;;;;;7.58;49.28;97416.31;6069665;23;20209;-84
2023/02/06 08:59:40;;;;;;;6.43;5.83;;;;;;;7.51;49.95;97420.25;6071196;23;20232;-86
2023/02/06 09:02:07;;;;;;;6.50;5.90;;;;;;;7.55;50.01;97414.78;6069137;23;20216;-86
2023/02/06 09:04:36;;;;;;;7.03;6.33;;;;;;;7.29;49.54;97403.06;6070349;23;20201;-85
2023/02/06 09:07:04;;;;;;;6.43;5.80;;;;;;;7.27;49.80;97412.63;6070401;23;20575;-85
2023/02/06 09:09:30;;;;;;;7.30;6.27;;;;;;;7.38;49.91;97414.38;6039933;23;20215;-85
2023/02/06 09:12:01;;;;;;;6.00;5.50;;;;;;;7.52;49.08;97419.31;6066526;23;20553;-85
2023/02/06 09:14:30;;;;;;;6.10;5.50;;;;;;;7.52;48.98;97409.06;6071884;23;20200;-84
2023/02/06 09:16:57;;;;;;;6.80;5.47;;;;;;;7.50;48.94;97405.81;6070208;23;20691;-84
2023/02/06 09:19:24;;;;;;;5.67;5.17;;;;;;;7.50;48.77;97398.13;6072198;23;20188;-84
2023/02/06 09:21:51;;;;;;;5.50;5.10;;;;;;;7.62;48.63;97392.09;6071651;23;20696;-84
2023/02/06 09:24:18;;;;;;;24.17;16.57;;;;;;;7.70;47.93;97406.91;6071245;23;20256;-84
2023/02/06 09:26:44;;;;;;;27.00;21.80;;;;;;;7.81;48.38;97417.19;6073198;23;20342;-84
2023/02/06 09:29:11;;;;;;;9.00;7.53;;;;;;;7.84;48.06;97416.97;6057914;23;20212;-84
2023/02/06 09:31:40;;;;;;;5.67;4.60;;;;;;;7.52;48.03;97409.88;6072058;23;20209;-84
2023/02/06 09:34:08;;;;;;;4.97;4.47;;;;;;;7.36;47.34;97418.81;6073877;23;20204;-84
2023/02/06 09:36:36;;;;;;;4.57;4.13;;;;;;;7.26;47.41;97416.94;6072689;23;20215;-84
2023/02/06 09:39:06;;;;;;;4.87;4.37;;;;;;;7.12;47.98;97406.03;6071669;23;20208;-84
2023/02/06 09:41:38;;;;;;;5.20;4.70;;;;;;;7.13;47.72;97394.84;6071549;23;20778;-84
2023/02/06 09:44:10;;;;;;;5.67;4.60;;;;;;;6.78;48.06;97403.31;6073840;23;20229;-84
2023/02/06 09:46:42;;;;;;;5.63;4.30;;;;;;;6.89;48.23;97415.34;6071384;23;20256;-84
2023/02/06 09:49:13;;;;;;;4.80;4.40;;;;;;;7.08;47.67;97420.00;6070962;23;20165;-84
2023/02/06 09:51:52;;;;;;;4.53;4.13;;;;;;;7.35;48.44;97412.03;6070181;23;20215;-83
2023/02/06 09:54:30;;;;;;;6.00;4.50;;;;;;;7.56;47.41;97403.59;6056864;23;20217;-84
2023/02/06 09:57:05;;;;;;;4.60;4.20;;;;;;;7.58;47.41;97408.63;6071102;23;20712;-84
2023/02/06 10:03:10;;;;;;;4.80;4.40;;;;;;;7.57;46.87;97396.75;6070420;23;20223;-84
2023/02/06 10:05:47;;;;;;;4.67;4.13;;;;;;;7.69;46.94;97388.16;6072615;23;20165;-84
2023/02/06 10:08:19;;;;;;;4.57;4.03;;;;;;;7.55;46.46;97384.03;6071848;23;20244;-84
2023/02/06 10:10:50;;;;;;;5.13;4.60;;;;;;;7.02;46.42;97394.81;6025210;23;20212;-84
2023/02/06 10:13:22;;;;;;;24.40;19.30;;;;;;;7.21;46.96;97383.13;6070610;23;20738;-84
2023/02/06 10:15:51;;;;;;;5.53;5.00;;;;;;;7.12;46.86;97388.91;6071791;23;20161;-84
2023/02/06 10:18:24;;;;;;;4.33;3.97;;;;;;;6.80;47.41;97390.38;6070418;23;20205;-84
2023/02/06 10:20:53;;;;;;;4.27;3.83;;;;;;;6.67;47.78;97381.94;6071981;23;20239;-84
2023/02/06 10:23:28;;;;;;;4.37;3.97;;;;;;;6.60;48.79;97384.13;6070664;23;20212;-85
2023/02/06 10:26:06;;;;;;;4.57;4.17;;;;;;;6.48;48.74;97384.97;6073083;23;20165;-84
2023/02/06 10:28:34;;;;;;;4.43;3.97;;;;;;;6.44;49.28;97375.88;6070827;23;20556;-84
2023/02/06 10:31:15;;;;;;;5.90;4.27;;;;;;;6.26;48.98;97377.16;6070639;23;20225;-84
2023/02/06 10:33:54;;;;;;;6.30;4.63;;;;;;;6.10;49.59;97367.97;6070233;23;20193;-84
2023/02/06 10:36:34;;;;;;;6.33;4.93;;;;;;;5.99;49.89;97369.63;6071063;23;20165;-84
2023/02/06 10:39:20;;;;;;;4.93;4.53;;;;;;;5.96;50.32;97362.19;6070560;23;20165;-84
2023/02/06 10:42:00;;;;;;;4.83;4.40;;;;;;;5.97;50.22;97359.50;6070449;23;20589;-84
2023/02/06 10:44:31;;;;;;;6.40;4.40;;;;;;;5.67;50.38;97344.47;6071691;23;20845;-84
2023/02/06 10:46:59;;;;;;;4.67;4.27;;;;;;;5.62;50.93;97341.38;6069871;23;20212;-84
2023/02/06 10:49:33;;;;;;;5.77;4.23;;;;;;;5.64;50.78;97339.56;6070701;23;20173;-84
2023/02/06 10:52:02;;;;;;;6.67;4.70;;;;;;;5.67;51.04;97328.31;6070152;23;20224;-84
2023/02/06 10:54:35;;;;;;;8.50;6.60;;;;;;;5.63;50.56;97326.88;6070363;23;20748;-84
2023/02/06 10:57:11;;;;;;;5.60;4.83;;;;;;;5.32;50.50;97331.47;6070093;23;20205;-84
2023/02/06 10:59:40;;;;;;;6.50;5.40;;;;;;;4.95;51.51;97330.50;6055404;23;20844;-84
2023/02/06 11:02:21;;;;;;;5.43;4.50;;;;;;;4.92;52.37;97322.22;6069708;23;20216;-84
2023/02/06 11:04:53;;;;;;;4.90;4.40;;;;;;;4.95;52.94;97322.84;6071101;23;20165;-84
2023/02/06 11:07:25;;;;;;;5.37;4.53;;;;;;;4.95;52.83;97309.28;6069268;23;20268;-84
2023/02/06 11:09:53;;;;;;;5.33;4.80;;;;;;;4.76;52.67;97307.91;6071291;23;20161;-84
2023/02/06 11:12:34;;;;;;;6.10;4.90;;;;;;;4.39;52.90;97311.97;6069900;23;20755;-83
2023/02/06 11:15:07;;;;;;;4.80;4.10;;;;;;;4.39;53.42;97309.41;6070919;23;20164;-84
2023/02/06 11:17:34;;;;;;;6.13;4.30;;;;;;;4.15;53.98;97308.38;6069652;23;20502;-84
2023/02/06 11:20:15;;;;;;;6.90;5.73;;;;;;;3.99;54.63;97294.94;6070207;23;20184;-84
2023/02/06 11:22:42;;;;;;;5.87;4.80;;;;;;;4.07;55.29;97290.19;6070354;23;20212;-85
2023/02/06 11:25:23;;;;;;;5.27;4.77;;;;;;;4.18;55.43;97294.63;6071012;23;20177;-84
2023/02/06 11:27:51;;;;;;;4.73;4.33;;;;;;;4.28;54.03;97288.84;6070657;23;20212;-84
2023/02/06 11:30:29;;;;;;;6.47;5.30;;;;;;;4.34;54.68;97291.03;6040490;23;20211;-84
2023/02/06 11:32:58;;;;;;;5.83;5.30;;;;;;;4.39;54.33;97283.09;6069568;23;20276;-84
2023/02/06 11:35:30;;;;;;;6.50;4.87;;;;;;;4.37;54.79;97280.63;6055790;23;20213;-84
2023/02/06 11:38:07;;;;;;;6.73;4.70;;;;;;;4.32;54.97;97269.91;6070386;23;20727;-84
2023/02/06 11:40:33;;;;;;;5.03;4.37;;;;;;;4.22;54.77;97273.13;6072782;23;20184;-84
2023/02/06 11:43:22;;;;;;;5.43;4.60;;;;;;;4.20;55.14;97269.88;6069971;23;20209;-84
2023/02/06 11:46:06;;;;;;;10.37;7.00;;;;;;;4.22;55.43;97268.03;6017601;23;20611;-83
2023/02/06 11:48:44;;;;;;;21.67;15.27;;;;;;;4.25;55.22;97262.72;6069894;23;20232;-83
2023/02/06 11:51:12;;;;;;;18.73;13.83;;;;;;;4.38;55.48;97259.31;6070720;23;20181;-83